sensor_id;sensor_type;location;lat;lon;timestamp;temperature;humidity
11005;DHT22;5555;59.622;16.556;2024-02-04T00:00:46;3.30;99.90
11005;DHT22;5555;59.622;16.556;2024-02-04T00:03:12;3.40;99.90
11005;DHT22;5555;59.622;16.556;2024-02-04T00:05:37;3.50;99.90
11005;DHT22;5555;59.622;16.556;2024-02-04T00:08:03;3.40;99.90
11005;DHT22;5555;59.622;16.556;2024-02-04T00:10:29;3.30;99.90
11005;DHT22;5555;59.622;16.556;2024-02-04T00:12:55;3.30;99.90
11005;DHT22;5555;59.622;16.556;2024-02-04T00:15:20;3.30;99.90
11005;DHT22;5555;59.622;16.556;2024-02-04T00:17:46;3.40;99.90
11005;DHT22;5555;59.622;16.556;2024-02-04T00:20:11;3.30;99.90
11005;DHT22;5555;59.622;16.556;2024-02-04T00:22:37;3.30;99.90
11005;DHT22;5555;59.622;16.556;2024-02-04T00:25:03;3.40;99.90
11005;DHT22;5555;59.622;16.556;2024-02-04T00:27:35;3.30;99.90
11005;DHT22;5555;59.622;16.556;2024-02-04T00:30:01;3.30;99.90
11005;DHT22;5555;59.622;16.556;2024-02-04T00:32:27;3.20;99.90
11005;DHT22;5555;59.622;16.556;2024-02-04T00:34:53;3.10;99.90
11005;DHT22;5555;59.622;16.556;2024-02-04T00:37:19;3.20;99.90
11005;DHT22;5555;59.622;16.556;2024-02-04T00:39:44;3.20;99.90
11005;DHT22;5555;59.622;16.556;2024-02-04T00:42:10;3.20;99.90
11005;DHT22;5555;59.622;16.556;2024-02-04T00:44:36;3.10;99.90
11005;DHT22;5555;59.622;16.556;2024-02-04T00:47:02;3.20;99.90
11005;DHT22;5555;59.622;16.556;2024-02-04T00:49:27;3.30;99.90
11005;DHT22;5555;59.622;16.556;2024-02-04T00:51:53;3.20;99.90
11005;DHT22;5555;59.622;16.556;2024-02-04T00:54:19;3.30;99.90
11005;DHT22;5555;59.622;16.556;2024-02-04T00:56:44;3.20;99.90
11005;DHT22;5555;59.622;16.556;2024-02-04T00:59:10;3.20;99.90
11005;DHT22;5555;59.622;16.556;2024-02-04T01:01:37;3.10;99.90
11005;DHT22;5555;59.622;16.556;2024-02-04T01:04:03;3.10;99.90
11005;DHT22;5555;59.622;16.556;2024-02-04T01:06:28;3.20;99.90
11005;DHT22;5555;59.622;16.556;2024-02-04T01:08:56;3.10;99.90
11005;DHT22;5555;59.622;16.556;2024-02-04T01:11:22;3.10;99.90
11005;DHT22;5555;59.622;16.556;2024-02-04T01:13:47;3.10;99.90
11005;DHT22;5555;59.622;16.556;2024-02-04T01:16:13;3.10;99.90
11005;DHT22;5555;59.622;16.556;2024-02-04T01:18:39;3.10;99.90
11005;DHT22;5555;59.622;16.556;2024-02-04T01:21:04;3.10;99.90
11005;DHT22;5555;59.622;16.556;2024-02-04T01:23:30;3.20;99.90
11005;DHT22;5555;59.622;16.556;2024-02-04T01:25:56;3.20;99.90
11005;DHT22;5555;59.622;16.556;2024-02-04T01:28:21;3.20;99.90
11005;DHT22;5555;59.622;16.556;2024-02-04T01:30:47;3.20;99.90
11005;DHT22;5555;59.622;16.556;2024-02-04T01:33:13;3.10;99.90
11005;DHT22;5555;59.622;16.556;2024-02-04T01:35:38;3.10;99.90
11005;DHT22;5555;59.622;16.556;2024-02-04T01:38:04;3.10;99.90
11005;DHT22;5555;59.622;16.556;2024-02-04T01:40:30;3.10;99.90
11005;DHT22;5555;59.622;16.556;2024-02-04T01:42:56;3.30;99.90
11005;DHT22;5555;59.622;16.556;2024-02-04T01:45:21;3.20;99.90
11005;DHT22;5555;59.622;16.556;2024-02-04T01:47:47;3.20;99.90
11005;DHT22;5555;59.622;16.556;2024-02-04T01:50:13;3.20;99.90
11005;DHT22;5555;59.622;16.556;2024-02-04T01:52:40;3.30;99.90
11005;DHT22;5555;59.622;16.556;2024-02-04T01:55:06;3.20;99.90
11005;DHT22;5555;59.622;16.556;2024-02-04T01:57:33;3.10;99.90
11005;DHT22;5555;59.622;16.556;2024-02-04T02:00:00;3.00;99.90
11005;DHT22;5555;59.622;16.556;2024-02-04T02:02:26;3.00;99.90
11005;DHT22;5555;59.622;16.556;2024-02-04T02:04:52;3.00;99.90
11005;DHT22;5555;59.622;16.556;2024-02-04T02:07:18;3.00;99.90
11005;DHT22;5555;59.622;16.556;2024-02-04T02:09:46;3.00;99.90
11005;DHT22;5555;59.622;16.556;2024-02-04T02:12:16;2.90;99.90
11005;DHT22;5555;59.622;16.556;2024-02-04T02:14:48;3.00;99.90
11005;DHT22;5555;59.622;16.556;2024-02-04T02:17:21;3.00;99.90
11005;DHT22;5555;59.622;16.556;2024-02-04T02:23:22;3.00;99.90
11005;DHT22;5555;59.622;16.556;2024-02-04T02:25:53;2.90;99.90
11005;DHT22;5555;59.622;16.556;2024-02-04T02:28:18;3.00;99.90
11005;DHT22;5555;59.622;16.556;2024-02-04T02:30:44;3.00;99.90
11005;DHT22;5555;59.622;16.556;2024-02-04T02:33:10;2.90;99.90
11005;DHT22;5555;59.622;16.556;2024-02-04T02:35:35;3.00;99.90
11005;DHT22;5555;59.622;16.556;2024-02-04T02:38:25;3.00;99.90
11005;DHT22;5555;59.622;16.556;2024-02-04T02:40:54;3.00;99.90
11005;DHT22;5555;59.622;16.556;2024-02-04T02:43:23;3.10;99.90
11005;DHT22;5555;59.622;16.556;2024-02-04T02:45:49;3.20;99.90
11005;DHT22;5555;59.622;16.556;2024-02-04T02:48:15;3.10;99.90
11005;DHT22;5555;59.622;16.556;2024-02-04T02:50:41;3.10;99.90
11005;DHT22;5555;59.622;16.556;2024-02-04T02:53:07;3.00;99.90
11005;DHT22;5555;59.622;16.556;2024-02-04T02:55:33;3.00;99.90
11005;DHT22;5555;59.622;16.556;2024-02-04T02:57:58;3.00;99.90
11005;DHT22;5555;59.622;16.556;2024-02-04T03:00:24;3.00;99.90
11005;DHT22;5555;59.622;16.556;2024-02-04T03:02:49;3.00;99.90
11005;DHT22;5555;59.622;16.556;2024-02-04T03:05:16;2.90;99.90
11005;DHT22;5555;59.622;16.556;2024-02-04T03:07:41;2.90;99.90
11005;DHT22;5555;59.622;16.556;2024-02-04T03:10:08;2.90;99.90
11005;DHT22;5555;59.622;16.556;2024-02-04T03:12:34;3.00;99.90
11005;DHT22;5555;59.622;16.556;2024-02-04T03:15:00;2.90;99.90
11005;DHT22;5555;59.622;16.556;2024-02-04T03:17:25;2.90;99.90
11005;DHT22;5555;59.622;16.556;2024-02-04T03:19:51;3.00;99.90
11005;DHT22;5555;59.622;16.556;2024-02-04T03:22:17;2.90;99.90
11005;DHT22;5555;59.622;16.556;2024-02-04T03:24:43;2.90;99.90
11005;DHT22;5555;59.622;16.556;2024-02-04T03:27:09;2.80;99.90
11005;DHT22;5555;59.622;16.556;2024-02-04T03:29:35;2.80;99.90
11005;DHT22;5555;59.622;16.556;2024-02-04T03:32:02;2.80;99.90
11005;DHT22;5555;59.622;16.556;2024-02-04T03:34:28;2.80;99.90
11005;DHT22;5555;59.622;16.556;2024-02-04T03:36:53;2.80;99.90
11005;DHT22;5555;59.622;16.556;2024-02-04T03:39:20;2.70;99.90
11005;DHT22;5555;59.622;16.556;2024-02-04T03:41:45;2.80;99.90
11005;DHT22;5555;59.622;16.556;2024-02-04T03:44:11;2.90;99.90
11005;DHT22;5555;59.622;16.556;2024-02-04T03:46:37;2.90;99.90
11005;DHT22;5555;59.622;16.556;2024-02-04T03:49:06;2.80;99.90
11005;DHT22;5555;59.622;16.556;2024-02-04T03:51:32;2.80;99.90
11005;DHT22;5555;59.622;16.556;2024-02-04T03:53:57;2.80;99.90
11005;DHT22;5555;59.622;16.556;2024-02-04T03:56:23;2.80;99.90
11005;DHT22;5555;59.622;16.556;2024-02-04T03:58:49;2.80;99.90
11005;DHT22;5555;59.622;16.556;2024-02-04T04:01:15;2.70;99.90
11005;DHT22;5555;59.622;16.556;2024-02-04T04:03:42;2.80;99.90
11005;DHT22;5555;59.622;16.556;2024-02-04T04:06:09;2.80;99.90
11005;DHT22;5555;59.622;16.556;2024-02-04T04:08:35;2.70;99.90
11005;DHT22;5555;59.622;16.556;2024-02-04T04:11:00;2.70;99.90
11005;DHT22;5555;59.622;16.556;2024-02-04T04:13:26;2.80;99.90
11005;DHT22;5555;59.622;16.556;2024-02-04T04:15:52;2.70;99.90
11005;DHT22;5555;59.622;16.556;2024-02-04T04:18:17;2.60;99.90
11005;DHT22;5555;59.622;16.556;2024-02-04T04:20:43;2.70;99.90
11005;DHT22;5555;59.622;16.556;2024-02-04T04:23:08;2.70;99.90
11005;DHT22;5555;59.622;16.556;2024-02-04T04:25:34;2.70;99.90
11005;DHT22;5555;59.622;16.556;2024-02-04T04:28:00;2.70;99.90
11005;DHT22;5555;59.622;16.556;2024-02-04T04:30:25;2.60;99.90
11005;DHT22;5555;59.622;16.556;2024-02-04T04:32:51;2.60;99.90
11005;DHT22;5555;59.622;16.556;2024-02-04T04:35:16;2.60;99.90
11005;DHT22;5555;59.622;16.556;2024-02-04T04:37:42;2.60;99.90
11005;DHT22;5555;59.622;16.556;2024-02-04T04:40:08;2.70;99.90
11005;DHT22;5555;59.622;16.556;2024-02-04T04:42:34;2.70;99.90
11005;DHT22;5555;59.622;16.556;2024-02-04T04:44:59;2.60;99.90
11005;DHT22;5555;59.622;16.556;2024-02-04T04:47:25;2.50;99.90
11005;DHT22;5555;59.622;16.556;2024-02-04T04:49:51;2.40;99.90
11005;DHT22;5555;59.622;16.556;2024-02-04T04:52:16;2.30;99.90
11005;DHT22;5555;59.622;16.556;2024-02-04T04:54:42;2.40;99.90
11005;DHT22;5555;59.622;16.556;2024-02-04T04:57:08;2.40;99.90
11005;DHT22;5555;59.622;16.556;2024-02-04T04:59:34;2.40;99.90
11005;DHT22;5555;59.622;16.556;2024-02-04T05:02:01;2.40;99.90
11005;DHT22;5555;59.622;16.556;2024-02-04T05:04:27;2.40;99.90
11005;DHT22;5555;59.622;16.556;2024-02-04T05:06:53;2.40;99.90
11005;DHT22;5555;59.622;16.556;2024-02-04T05:09:18;2.40;99.90
11005;DHT22;5555;59.622;16.556;2024-02-04T05:11:44;2.30;99.90
11005;DHT22;5555;59.622;16.556;2024-02-04T05:14:09;2.30;99.90
11005;DHT22;5555;59.622;16.556;2024-02-04T05:16:35;2.30;99.90
11005;DHT22;5555;59.622;16.556;2024-02-04T05:19:02;2.50;99.90
11005;DHT22;5555;59.622;16.556;2024-02-04T05:21:28;2.50;99.90
11005;DHT22;5555;59.622;16.556;2024-02-04T05:23:53;2.50;99.90
11005;DHT22;5555;59.622;16.556;2024-02-04T05:26:19;2.50;99.90
11005;DHT22;5555;59.622;16.556;2024-02-04T05:28:45;2.40;99.90
11005;DHT22;5555;59.622;16.556;2024-02-04T05:31:10;2.40;99.90
11005;DHT22;5555;59.622;16.556;2024-02-04T05:33:36;2.40;99.90
11005;DHT22;5555;59.622;16.556;2024-02-04T05:36:03;2.40;99.90
11005;DHT22;5555;59.622;16.556;2024-02-04T05:38:29;2.50;99.90
11005;DHT22;5555;59.622;16.556;2024-02-04T05:40:54;2.50;99.90
11005;DHT22;5555;59.622;16.556;2024-02-04T05:43:20;2.40;99.90
11005;DHT22;5555;59.622;16.556;2024-02-04T05:45:46;2.40;99.90
11005;DHT22;5555;59.622;16.556;2024-02-04T05:48:12;2.40;99.90
11005;DHT22;5555;59.622;16.556;2024-02-04T05:50:38;2.30;99.90
11005;DHT22;5555;59.622;16.556;2024-02-04T05:53:04;2.30;99.90
11005;DHT22;5555;59.622;16.556;2024-02-04T05:55:30;2.20;99.90
11005;DHT22;5555;59.622;16.556;2024-02-04T05:57:56;2.10;99.90
11005;DHT22;5555;59.622;16.556;2024-02-04T06:00:22;2.10;99.90
11005;DHT22;5555;59.622;16.556;2024-02-04T06:02:48;2.10;99.90
11005;DHT22;5555;59.622;16.556;2024-02-04T06:05:14;2.00;99.90
11005;DHT22;5555;59.622;16.556;2024-02-04T06:07:42;1.80;99.90
11005;DHT22;5555;59.622;16.556;2024-02-04T06:10:11;1.80;99.90
11005;DHT22;5555;59.622;16.556;2024-02-04T06:12:36;1.80;99.90
11005;DHT22;5555;59.622;16.556;2024-02-04T06:15:04;1.70;99.90
11005;DHT22;5555;59.622;16.556;2024-02-04T06:17:29;1.80;99.90
11005;DHT22;5555;59.622;16.556;2024-02-04T06:19:55;1.70;99.90
11005;DHT22;5555;59.622;16.556;2024-02-04T06:22:22;1.70;99.90
11005;DHT22;5555;59.622;16.556;2024-02-04T06:24:48;1.60;99.90
11005;DHT22;5555;59.622;16.556;2024-02-04T06:27:14;1.60;99.90
11005;DHT22;5555;59.622;16.556;2024-02-04T06:29:39;1.50;99.90
11005;DHT22;5555;59.622;16.556;2024-02-04T06:32:05;1.50;99.90
11005;DHT22;5555;59.622;16.556;2024-02-04T06:34:31;1.40;99.90
11005;DHT22;5555;59.622;16.556;2024-02-04T06:36:57;1.40;99.90
11005;DHT22;5555;59.622;16.556;2024-02-04T06:39:22;1.40;99.90
11005;DHT22;5555;59.622;16.556;2024-02-04T06:41:48;1.40;99.90
11005;DHT22;5555;59.622;16.556;2024-02-04T06:44:14;1.40;99.90
11005;DHT22;5555;59.622;16.556;2024-02-04T06:46:39;1.40;99.90
11005;DHT22;5555;59.622;16.556;2024-02-04T06:49:05;1.40;99.90
11005;DHT22;5555;59.622;16.556;2024-02-04T06:51:31;1.40;99.90
11005;DHT22;5555;59.622;16.556;2024-02-04T06:53:56;1.30;99.90
11005;DHT22;5555;59.622;16.556;2024-02-04T06:56:22;1.40;99.90
11005;DHT22;5555;59.622;16.556;2024-02-04T06:58:47;1.40;99.90
11005;DHT22;5555;59.622;16.556;2024-02-04T07:01:14;1.20;99.90
11005;DHT22;5555;59.622;16.556;2024-02-04T07:03:39;1.30;99.90
11005;DHT22;5555;59.622;16.556;2024-02-04T07:06:05;1.30;99.90
11005;DHT22;5555;59.622;16.556;2024-02-04T07:08:31;1.40;99.90
11005;DHT22;5555;59.622;16.556;2024-02-04T07:10:56;1.40;99.90
11005;DHT22;5555;59.622;16.556;2024-02-04T07:13:22;1.40;99.90
11005;DHT22;5555;59.622;16.556;2024-02-04T07:15:48;1.40;99.90
11005;DHT22;5555;59.622;16.556;2024-02-04T07:18:14;1.40;99.90
11005;DHT22;5555;59.622;16.556;2024-02-04T07:20:39;1.40;99.90
11005;DHT22;5555;59.622;16.556;2024-02-04T07:23:05;1.50;99.90
11005;DHT22;5555;59.622;16.556;2024-02-04T07:25:31;1.50;99.90
11005;DHT22;5555;59.622;16.556;2024-02-04T07:27:57;1.40;99.90
11005;DHT22;5555;59.622;16.556;2024-02-04T07:30:24;1.50;99.90
11005;DHT22;5555;59.622;16.556;2024-02-04T07:32:49;1.50;99.90
11005;DHT22;5555;59.622;16.556;2024-02-04T07:35:16;1.50;99.90
11005;DHT22;5555;59.622;16.556;2024-02-04T07:37:41;1.50;99.90
11005;DHT22;5555;59.622;16.556;2024-02-04T07:40:08;1.50;99.90
11005;DHT22;5555;59.622;16.556;2024-02-04T07:42:33;1.50;99.90
11005;DHT22;5555;59.622;16.556;2024-02-04T07:44:59;1.60;99.90
11005;DHT22;5555;59.622;16.556;2024-02-04T07:47:24;1.60;99.90
11005;DHT22;5555;59.622;16.556;2024-02-04T07:49:50;1.60;99.90
11005;DHT22;5555;59.622;16.556;2024-02-04T07:52:16;1.60;99.90
11005;DHT22;5555;59.622;16.556;2024-02-04T07:54:42;1.70;99.90
11005;DHT22;5555;59.622;16.556;2024-02-04T07:57:09;1.70;99.90
11005;DHT22;5555;59.622;16.556;2024-02-04T07:59:35;1.70;99.90
11005;DHT22;5555;59.622;16.556;2024-02-04T08:02:01;1.70;99.90
11005;DHT22;5555;59.622;16.556;2024-02-04T08:04:26;1.70;99.90
11005;DHT22;5555;59.622;16.556;2024-02-04T08:06:52;1.70;99.90
11005;DHT22;5555;59.622;16.556;2024-02-04T08:09:18;1.70;99.90
11005;DHT22;5555;59.622;16.556;2024-02-04T08:11:44;1.70;99.90
11005;DHT22;5555;59.622;16.556;2024-02-04T08:14:09;1.80;99.90
11005;DHT22;5555;59.622;16.556;2024-02-04T08:16:35;1.80;99.90
11005;DHT22;5555;59.622;16.556;2024-02-04T08:19:00;1.80;99.90
11005;DHT22;5555;59.622;16.556;2024-02-04T08:21:26;1.80;99.90
11005;DHT22;5555;59.622;16.556;2024-02-04T08:23:52;1.80;99.90
11005;DHT22;5555;59.622;16.556;2024-02-04T08:26:17;1.80;99.90
11005;DHT22;5555;59.622;16.556;2024-02-04T08:28:43;1.80;99.90
11005;DHT22;5555;59.622;16.556;2024-02-04T08:31:09;1.90;99.90
11005;DHT22;5555;59.622;16.556;2024-02-04T08:33:35;1.80;99.90
11005;DHT22;5555;59.622;16.556;2024-02-04T08:36:00;1.80;99.90
11005;DHT22;5555;59.622;16.556;2024-02-04T08:38:26;1.80;99.90
11005;DHT22;5555;59.622;16.556;2024-02-04T08:40:51;1.80;99.90
11005;DHT22;5555;59.622;16.556;2024-02-04T08:43:17;1.80;99.90
11005;DHT22;5555;59.622;16.556;2024-02-04T08:45:43;1.80;99.90
11005;DHT22;5555;59.622;16.556;2024-02-04T08:48:08;1.80;99.90
11005;DHT22;5555;59.622;16.556;2024-02-04T08:50:34;1.90;99.90
11005;DHT22;5555;59.622;16.556;2024-02-04T08:52:59;1.90;99.90
11005;DHT22;5555;59.622;16.556;2024-02-04T08:55:25;1.90;99.90
11005;DHT22;5555;59.622;16.556;2024-02-04T08:57:51;2.00;99.90
11005;DHT22;5555;59.622;16.556;2024-02-04T09:00:19;2.10;99.90
11005;DHT22;5555;59.622;16.556;2024-02-04T09:02:45;2.10;99.90
11005;DHT22;5555;59.622;16.556;2024-02-04T09:05:12;2.10;99.90
11005;DHT22;5555;59.622;16.556;2024-02-04T09:07:38;2.10;99.90
11005;DHT22;5555;59.622;16.556;2024-02-04T09:10:04;2.10;99.90
11005;DHT22;5555;59.622;16.556;2024-02-04T09:12:30;2.00;99.90
11005;DHT22;5555;59.622;16.556;2024-02-04T09:14:56;2.00;99.90
11005;DHT22;5555;59.622;16.556;2024-02-04T09:17:21;2.10;99.90
11005;DHT22;5555;59.622;16.556;2024-02-04T09:19:47;2.00;99.90
11005;DHT22;5555;59.622;16.556;2024-02-04T09:22:12;2.10;99.90
11005;DHT22;5555;59.622;16.556;2024-02-04T09:24:38;2.10;99.90
11005;DHT22;5555;59.622;16.556;2024-02-04T09:27:04;2.10;99.90
11005;DHT22;5555;59.622;16.556;2024-02-04T09:29:29;2.10;99.90
11005;DHT22;5555;59.622;16.556;2024-02-04T09:31:55;2.10;99.90
11005;DHT22;5555;59.622;16.556;2024-02-04T09:34:21;2.10;99.90
11005;DHT22;5555;59.622;16.556;2024-02-04T09:36:47;2.10;99.90
11005;DHT22;5555;59.622;16.556;2024-02-04T09:39:12;2.10;99.90
11005;DHT22;5555;59.622;16.556;2024-02-04T09:41:38;2.10;99.90
11005;DHT22;5555;59.622;16.556;2024-02-04T09:44:04;2.20;99.90
11005;DHT22;5555;59.622;16.556;2024-02-04T09:46:31;2.20;99.90
11005;DHT22;5555;59.622;16.556;2024-02-04T09:48:57;2.20;99.90
11005;DHT22;5555;59.622;16.556;2024-02-04T09:51:23;2.20;99.90
11005;DHT22;5555;59.622;16.556;2024-02-04T09:53:52;2.10;99.90
11005;DHT22;5555;59.622;16.556;2024-02-04T09:56:21;2.00;99.90
11005;DHT22;5555;59.622;16.556;2024-02-04T09:58:47;2.00;99.90
11005;DHT22;5555;59.622;16.556;2024-02-04T10:01:14;1.90;99.90
11005;DHT22;5555;59.622;16.556;2024-02-04T10:03:41;1.90;99.90
11005;DHT22;5555;59.622;16.556;2024-02-04T10:06:07;1.90;99.90
11005;DHT22;5555;59.622;16.556;2024-02-04T10:08:34;1.90;99.90
11005;DHT22;5555;59.622;16.556;2024-02-04T10:11:00;1.90;99.90
11005;DHT22;5555;59.622;16.556;2024-02-04T10:13:26;1.90;99.90
11005;DHT22;5555;59.622;16.556;2024-02-04T10:15:52;1.90;99.90
11005;DHT22;5555;59.622;16.556;2024-02-04T10:18:17;2.00;99.90
11005;DHT22;5555;59.622;16.556;2024-02-04T10:20:43;2.20;99.90
11005;DHT22;5555;59.622;16.556;2024-02-04T10:23:09;2.40;99.90
11005;DHT22;5555;59.622;16.556;2024-02-04T10:25:35;2.60;99.90
11005;DHT22;5555;59.622;16.556;2024-02-04T10:28:01;2.90;99.90
11005;DHT22;5555;59.622;16.556;2024-02-04T10:30:27;3.00;99.90
11005;DHT22;5555;59.622;16.556;2024-02-04T10:32:53;3.10;99.90
11005;DHT22;5555;59.622;16.556;2024-02-04T10:35:25;3.20;99.90
11005;DHT22;5555;59.622;16.556;2024-02-04T10:37:51;3.20;99.90
11005;DHT22;5555;59.622;16.556;2024-02-04T10:40:17;3.30;99.90
11005;DHT22;5555;59.622;16.556;2024-02-04T10:42:44;3.40;99.90
11005;DHT22;5555;59.622;16.556;2024-02-04T10:45:10;3.50;99.90
11005;DHT22;5555;59.622;16.556;2024-02-04T10:47:40;3.50;99.90
11005;DHT22;5555;59.622;16.556;2024-02-04T10:50:07;3.50;99.90
11005;DHT22;5555;59.622;16.556;2024-02-04T10:52:39;3.70;99.90
11005;DHT22;5555;59.622;16.556;2024-02-04T10:55:08;3.70;99.90
11005;DHT22;5555;59.622;16.556;2024-02-04T10:57:35;3.90;99.90
11005;DHT22;5555;59.622;16.556;2024-02-04T11:00:02;3.80;99.90
11005;DHT22;5555;59.622;16.556;2024-02-04T11:02:35;3.80;99.90
11005;DHT22;5555;59.622;16.556;2024-02-04T11:05:04;3.90;99.90
11005;DHT22;5555;59.622;16.556;2024-02-04T11:07:32;3.70;99.90
11005;DHT22;5555;59.622;16.556;2024-02-04T11:09:58;3.70;99.90
11005;DHT22;5555;59.622;16.556;2024-02-04T11:12:25;3.70;99.90
11005;DHT22;5555;59.622;16.556;2024-02-04T11:14:54;3.90;99.90
11005;DHT22;5555;59.622;16.556;2024-02-04T11:17:57;4.20;99.90
11005;DHT22;5555;59.622;16.556;2024-02-04T11:23:36;4.20;99.90
11005;DHT22;5555;59.622;16.556;2024-02-04T11:26:03;4.20;99.90
11005;DHT22;5555;59.622;16.556;2024-02-04T11:28:30;4.00;99.90
11005;DHT22;5555;59.622;16.556;2024-02-04T11:30:56;4.00;99.90
11005;DHT22;5555;59.622;16.556;2024-02-04T11:33:22;4.00;99.90
11005;DHT22;5555;59.622;16.556;2024-02-04T11:36:06;4.10;99.90
11005;DHT22;5555;59.622;16.556;2024-02-04T11:38:37;4.00;99.90
11005;DHT22;5555;59.622;16.556;2024-02-04T11:41:04;4.10;99.90
11005;DHT22;5555;59.622;16.556;2024-02-04T11:43:32;4.10;99.90
11005;DHT22;5555;59.622;16.556;2024-02-04T11:45:58;4.30;99.90
11005;DHT22;5555;59.622;16.556;2024-02-04T11:48:52;4.70;99.90
11005;DHT22;5555;59.622;16.556;2024-02-04T11:51:24;4.80;99.90
11005;DHT22;5555;59.622;16.556;2024-02-04T11:53:54;4.80;99.90
11005;DHT22;5555;59.622;16.556;2024-02-04T11:56:20;4.80;99.90
11005;DHT22;5555;59.622;16.556;2024-02-04T11:58:46;4.80;99.90
11005;DHT22;5555;59.622;16.556;2024-02-04T12:01:12;4.90;99.90
11005;DHT22;5555;59.622;16.556;2024-02-04T12:03:38;5.10;99.90
11005;DHT22;5555;59.622;16.556;2024-02-04T12:06:04;5.40;99.90
11005;DHT22;5555;59.622;16.556;2024-02-04T12:08:32;5.20;99.90
11005;DHT22;5555;59.622;16.556;2024-02-04T12:10:58;5.50;99.90
11005;DHT22;5555;59.622;16.556;2024-02-04T12:13:24;5.90;99.90
11005;DHT22;5555;59.622;16.556;2024-02-04T12:15:50;5.90;99.90
11005;DHT22;5555;59.622;16.556;2024-02-04T12:18:16;6.10;99.90
11005;DHT22;5555;59.622;16.556;2024-02-04T12:20:46;6.40;99.90
11005;DHT22;5555;59.622;16.556;2024-02-04T12:23:12;6.10;99.90
11005;DHT22;5555;59.622;16.556;2024-02-04T12:25:38;6.00;99.90
11005;DHT22;5555;59.622;16.556;2024-02-04T12:28:04;5.50;99.90
11005;DHT22;5555;59.622;16.556;2024-02-04T12:30:31;5.40;99.90
11005;DHT22;5555;59.622;16.556;2024-02-04T12:33:01;5.60;99.90
11005;DHT22;5555;59.622;16.556;2024-02-04T12:35:28;5.70;99.90
11005;DHT22;5555;59.622;16.556;2024-02-04T12:37:55;6.00;99.90
11005;DHT22;5555;59.622;16.556;2024-02-04T12:40:29;5.90;99.90
11005;DHT22;5555;59.622;16.556;2024-02-04T12:42:57;6.20;99.90
11005;DHT22;5555;59.622;16.556;2024-02-04T12:45:24;6.20;99.90
11005;DHT22;5555;59.622;16.556;2024-02-04T12:47:54;6.30;99.90
11005;DHT22;5555;59.622;16.556;2024-02-04T12:50:20;6.40;99.90
11005;DHT22;5555;59.622;16.556;2024-02-04T12:52:48;6.10;99.90
11005;DHT22;5555;59.622;16.556;2024-02-04T12:55:24;6.30;99.90
11005;DHT22;5555;59.622;16.556;2024-02-04T12:58:00;6.10;99.90
11005;DHT22;5555;59.622;16.556;2024-02-04T13:00:26;6.30;99.90
11005;DHT22;5555;59.622;16.556;2024-02-04T13:02:51;6.50;99.90
11005;DHT22;5555;59.622;16.556;2024-02-04T13:05:24;6.40;99.90
11005;DHT22;5555;59.622;16.556;2024-02-04T13:07:56;6.50;99.90
11005;DHT22;5555;59.622;16.556;2024-02-04T13:10:26;6.50;99.90
11005;DHT22;5555;59.622;16.556;2024-02-04T13:13:08;6.50;99.90
11005;DHT22;5555;59.622;16.556;2024-02-04T13:15:40;6.50;99.90
11005;DHT22;5555;59.622;16.556;2024-02-04T13:18:06;6.30;99.90
11005;DHT22;5555;59.622;16.556;2024-02-04T13:20:32;5.90;99.90
11005;DHT22;5555;59.622;16.556;2024-02-04T13:22:58;5.60;99.90
11005;DHT22;5555;59.622;16.556;2024-02-04T13:25:25;5.40;99.90
11005;DHT22;5555;59.622;16.556;2024-02-04T13:27:52;5.50;99.90
11005;DHT22;5555;59.622;16.556;2024-02-04T13:30:18;5.60;99.90
11005;DHT22;5555;59.622;16.556;2024-02-04T13:32:45;5.50;99.90
11005;DHT22;5555;59.622;16.556;2024-02-04T13:35:11;6.10;99.90
11005;DHT22;5555;59.622;16.556;2024-02-04T13:37:39;6.80;99.90
11005;DHT22;5555;59.622;16.556;2024-02-04T13:40:05;7.60;99.90
11005;DHT22;5555;59.622;16.556;2024-02-04T13:42:32;7.60;99.90
11005;DHT22;5555;59.622;16.556;2024-02-04T13:44:59;6.70;99.90
11005;DHT22;5555;59.622;16.556;2024-02-04T13:47:26;6.20;99.90
11005;DHT22;5555;59.622;16.556;2024-02-04T13:49:51;5.70;99.90
11005;DHT22;5555;59.622;16.556;2024-02-04T13:52:17;5.30;99.90
11005;DHT22;5555;59.622;16.556;2024-02-04T13:54:42;4.90;99.90
11005;DHT22;5555;59.622;16.556;2024-02-04T13:57:09;4.60;99.90
11005;DHT22;5555;59.622;16.556;2024-02-04T13:59:34;4.50;99.90
11005;DHT22;5555;59.622;16.556;2024-02-04T14:02:00;4.30;99.90
11005;DHT22;5555;59.622;16.556;2024-02-04T14:04:26;4.20;99.90
11005;DHT22;5555;59.622;16.556;2024-02-04T14:06:52;4.20;99.90
11005;DHT22;5555;59.622;16.556;2024-02-04T14:09:18;4.20;99.90
11005;DHT22;5555;59.622;16.556;2024-02-04T14:11:43;4.30;99.90
11005;DHT22;5555;59.622;16.556;2024-02-04T14:14:09;4.70;99.90
11005;DHT22;5555;59.622;16.556;2024-02-04T14:16:34;4.80;99.90
11005;DHT22;5555;59.622;16.556;2024-02-04T14:19:00;4.80;99.90
11005;DHT22;5555;59.622;16.556;2024-02-04T14:21:25;4.60;99.90
11005;DHT22;5555;59.622;16.556;2024-02-04T14:23:51;4.30;99.90
11005;DHT22;5555;59.622;16.556;2024-02-04T14:26:18;4.10;99.90
11005;DHT22;5555;59.622;16.556;2024-02-04T14:28:44;3.90;99.90
11005;DHT22;5555;59.622;16.556;2024-02-04T14:31:09;3.70;99.90
11005;DHT22;5555;59.622;16.556;2024-02-04T14:33:35;3.60;99.90
11005;DHT22;5555;59.622;16.556;2024-02-04T14:36:00;3.50;99.90
11005;DHT22;5555;59.622;16.556;2024-02-04T14:38:26;3.50;99.90
11005;DHT22;5555;59.622;16.556;2024-02-04T14:40:52;3.40;99.90
11005;DHT22;5555;59.622;16.556;2024-02-04T14:43:18;3.40;99.90
11005;DHT22;5555;59.622;16.556;2024-02-04T14:45:47;3.30;99.90
11005;DHT22;5555;59.622;16.556;2024-02-04T14:48:12;3.20;99.90
11005;DHT22;5555;59.622;16.556;2024-02-04T14:50:38;3.20;99.90
11005;DHT22;5555;59.622;16.556;2024-02-04T14:53:03;3.10;99.90
11005;DHT22;5555;59.622;16.556;2024-02-04T14:55:29;3.10;99.90
11005;DHT22;5555;59.622;16.556;2024-02-04T14:57:55;3.00;99.90
11005;DHT22;5555;59.622;16.556;2024-02-04T15:00:20;2.90;99.90
11005;DHT22;5555;59.622;16.556;2024-02-04T15:02:50;2.80;99.90
11005;DHT22;5555;59.622;16.556;2024-02-04T15:05:16;2.80;99.90
11005;DHT22;5555;59.622;16.556;2024-02-04T15:07:42;2.70;99.90
11005;DHT22;5555;59.622;16.556;2024-02-04T15:10:08;2.60;99.90
11005;DHT22;5555;59.622;16.556;2024-02-04T15:12:36;2.50;99.90
11005;DHT22;5555;59.622;16.556;2024-02-04T15:15:03;2.40;99.90
11005;DHT22;5555;59.622;16.556;2024-02-04T15:17:28;2.40;99.90
11005;DHT22;5555;59.622;16.556;2024-02-04T15:19:54;2.40;99.90
11005;DHT22;5555;59.622;16.556;2024-02-04T15:22:20;2.30;99.90
11005;DHT22;5555;59.622;16.556;2024-02-04T15:24:47;2.30;99.90
11005;DHT22;5555;59.622;16.556;2024-02-04T15:27:13;2.30;99.90
11005;DHT22;5555;59.622;16.556;2024-02-04T15:29:39;2.40;99.90
11005;DHT22;5555;59.622;16.556;2024-02-04T15:32:07;2.40;99.90
11005;DHT22;5555;59.622;16.556;2024-02-04T15:34:33;2.30;99.90
11005;DHT22;5555;59.622;16.556;2024-02-04T15:37:01;2.40;99.90
11005;DHT22;5555;59.622;16.556;2024-02-04T15:39:27;2.40;99.90
11005;DHT22;5555;59.622;16.556;2024-02-04T15:41:53;2.30;99.90
11005;DHT22;5555;59.622;16.556;2024-02-04T15:44:18;2.30;99.90
11005;DHT22;5555;59.622;16.556;2024-02-04T15:46:45;2.30;99.90